PWSweather.com
Personal Weather Stations
Station Observations
UWIDEPER1
Brown County, Depere, WI 54115

Brown CountyDepere, WI 54115

Lat: 44.44, Lon: -88.05

Elevation: 610

Station Type: Acurite 5in1

www.depereweather.com

High Low Average
Temperature 58.4°F14.7°C 36.7°F2.6°C 46.0°F7.8°C
Dew Point 44.1°F6.7°C 32.4°F0.2°C 37.7°F3.2°C
Winds 9.2 mph 14.8 kmh Calm Calm 4.0 mph SW6.4 kmh SW
Wind Gusts 12.7 mph20.4 kmh -- 6.0 mph9.7 kmh
Humidity 91% 51% 74%
Pressure 29.84 in1010.5 mb 29.50 in999.0 mb -
Precipitation 0.00 in0.0 mm - -
Hour Temp Dew Point Humidity Winds Wind Gusts Pressure Precip Precip Rate Daily Precip Total
12:00 AM 42.1°F5.6°C 37.3°F2.9°C 83% 3.5 mph SSW5.6 kmh SSW 3.5 mph5.6 kmh 29.52 in999.7 mb - 0.00 in0.0 mm 0.00 in0.0 mm
12:10 AM 41.7°F5.4°C 36.9°F2.7°C 83% 2.3 mph SSW3.7 kmh SSW 3.5 mph5.6 kmh 29.51 in999.3 mb - 0.00 in0.0 mm 0.00 in0.0 mm
12:15 AM 41.9°F5.5°C 37.1°F2.8°C 83% 3.5 mph SSW5.6 kmh SSW 4.6 mph7.4 kmh 29.51 in999.3 mb - 0.00 in0.0 mm 0.00 in0.0 mm
12:20 AM 42.5°F5.8°C 37.7°F3.2°C 83% 3.5 mph S5.6 kmh S 5.8 mph9.3 kmh 29.50 in999.0 mb - 0.00 in0.0 mm 0.00 in0.0 mm
12:25 AM 42.7°F5.9°C 37.9°F3.3°C 83% 3.5 mph S5.6 kmh S 5.8 mph9.3 kmh 29.51 in999.3 mb - 0.00 in0.0 mm 0.00 in0.0 mm
12:30 AM 43.0°F6.1°C 38.2°F3.4°C 83% 3.5 mph SW5.6 kmh SW 5.8 mph9.3 kmh 29.50 in999.0 mb - 0.00 in0.0 mm 0.00 in0.0 mm
12:35 AM 43.2°F6.2°C 38.4°F3.6°C 83% 2.3 mph S3.7 kmh S 5.8 mph9.3 kmh 29.50 in999.0 mb - 0.00 in0.0 mm 0.00 in0.0 mm
12:40 AM 43.2°F6.2°C 38.4°F3.6°C 83% 3.5 mph SSW5.6 kmh SSW 5.8 mph9.3 kmh 29.51 in999.3 mb - 0.00 in0.0 mm 0.00 in0.0 mm
12:45 AM 43.0°F6.1°C 38.2°F3.4°C 83% 4.6 mph WSW7.4 kmh WSW 5.8 mph9.3 kmh 29.51 in999.3 mb - 0.00 in0.0 mm 0.00 in0.0 mm
12:50 AM 43.0°F6.1°C 38.2°F3.4°C 83% 2.3 mph SSW3.7 kmh SSW 5.8 mph9.3 kmh 29.51 in999.3 mb - 0.00 in0.0 mm 0.00 in0.0 mm
12:55 AM 42.5°F5.8°C 37.7°F3.2°C 83% 3.5 mph S5.6 kmh S 5.8 mph9.3 kmh 29.51 in999.3 mb - 0.00 in0.0 mm 0.00 in0.0 mm
01:00 AM 43.0°F6.1°C 38.2°F3.4°C 83% 6.9 mph SSW11.1 kmh SSW 6.9 mph11.1 kmh 29.51 in999.3 mb - 0.00 in0.0 mm 0.00 in0.0 mm
01:10 AM 43.0°F6.1°C 37.6°F3.1°C 81% 3.5 mph SW5.6 kmh SW 11.5 mph18.5 kmh 29.52 in999.7 mb - 0.00 in0.0 mm 0.00 in0.0 mm
01:15 AM 43.2°F6.2°C 37.8°F3.2°C 81% 4.6 mph W7.4 kmh W 11.5 mph18.5 kmh 29.51 in999.3 mb - 0.00 in0.0 mm 0.00 in0.0 mm
01:25 AM 43.2°F6.2°C 37.8°F3.2°C 81% 2.3 mph SSW3.7 kmh SSW 9.2 mph14.8 kmh 29.52 in999.7 mb - 0.00 in0.0 mm 0.00 in0.0 mm
01:30 AM 43.2°F6.2°C 37.8°F3.2°C 81% 2.3 mph SW3.7 kmh SW 9.2 mph14.8 kmh 29.52 in999.7 mb - 0.00 in0.0 mm 0.00 in0.0 mm
01:35 AM 43.2°F6.2°C 37.8°F3.2°C 81% 5.8 mph S9.3 kmh S 8.1 mph13.0 kmh 29.52 in999.7 mb - 0.00 in0.0 mm 0.00 in0.0 mm
01:40 AM 43.2°F6.2°C 37.8°F3.2°C 81% 3.5 mph SSW5.6 kmh SSW 8.1 mph13.0 kmh 29.53 in1000.0 mb - 0.00 in0.0 mm 0.00 in0.0 mm
01:45 AM 43.2°F6.2°C 37.8°F3.2°C 81% 5.8 mph SW9.3 kmh SW 8.1 mph13.0 kmh 29.53 in1000.0 mb - 0.00 in0.0 mm 0.00 in0.0 mm
01:50 AM 43.2°F6.2°C 37.8°F3.2°C 81% 3.5 mph SSW5.6 kmh SSW 8.1 mph13.0 kmh 29.52 in999.7 mb - 0.00 in0.0 mm 0.00 in0.0 mm
01:55 AM 43.4°F6.3°C 38.0°F3.3°C 81% 4.6 mph S7.4 kmh S 6.9 mph11.1 kmh 29.53 in1000.0 mb - 0.00 in0.0 mm 0.00 in0.0 mm
02:00 AM 43.2°F6.2°C 37.8°F3.2°C 81% 2.3 mph SW3.7 kmh SW 6.9 mph11.1 kmh 29.53 in1000.0 mb - 0.00 in0.0 mm 0.00 in0.0 mm
02:10 AM 43.2°F6.2°C 37.8°F3.2°C 81% 4.6 mph SSW7.4 kmh SSW 6.9 mph11.1 kmh 29.53 in1000.0 mb - 0.00 in0.0 mm 0.00 in0.0 mm
02:15 AM 43.2°F6.2°C 37.8°F3.2°C 81% 8.1 mph SSW13.0 kmh SSW 8.1 mph13.0 kmh 29.53 in1000.0 mb - 0.00 in0.0 mm 0.00 in0.0 mm
02:20 AM 43.2°F6.2°C 37.8°F3.2°C 81% 4.6 mph SW7.4 kmh SW 8.1 mph13.0 kmh 29.54 in1000.3 mb - 0.00 in0.0 mm 0.00 in0.0 mm
02:25 AM 43.2°F6.2°C 37.8°F3.2°C 81% 5.8 mph S9.3 kmh S 8.1 mph13.0 kmh 29.54 in1000.3 mb - 0.00 in0.0 mm 0.00 in0.0 mm
02:30 AM 43.0°F6.1°C 37.6°F3.1°C 81% 3.5 mph SSW5.6 kmh SSW 8.1 mph13.0 kmh 29.53 in1000.0 mb - 0.00 in0.0 mm 0.00 in0.0 mm
02:35 AM 42.7°F5.9°C 37.9°F3.3°C 83% 4.6 mph S7.4 kmh S 8.1 mph13.0 kmh 29.53 in1000.0 mb - 0.00 in0.0 mm 0.00 in0.0 mm
02:40 AM 42.5°F5.8°C 37.7°F3.2°C 83% 4.6 mph SW7.4 kmh SW 6.9 mph11.1 kmh 29.54 in1000.3 mb - 0.00 in0.0 mm 0.00 in0.0 mm
02:45 AM 42.5°F5.8°C 37.7°F3.2°C 83% 4.6 mph SSW7.4 kmh SSW 6.9 mph11.1 kmh 29.54 in1000.3 mb - 0.00 in0.0 mm 0.00 in0.0 mm
02:50 AM 42.4°F5.8°C 37.6°F3.1°C 83% 5.8 mph SW9.3 kmh SW 8.1 mph13.0 kmh 29.54 in1000.3 mb - 0.00 in0.0 mm 0.00 in0.0 mm
02:55 AM 42.3°F5.7°C 37.5°F3.1°C 83% 3.5 mph SSW5.6 kmh SSW 8.1 mph13.0 kmh 29.54 in1000.3 mb - 0.00 in0.0 mm 0.00 in0.0 mm
03:00 AM 41.9°F5.5°C 37.1°F2.8°C 83% 4.6 mph SSW7.4 kmh SSW 6.9 mph11.1 kmh 29.54 in1000.3 mb - 0.00 in0.0 mm 0.00 in0.0 mm
03:10 AM 41.5°F5.3°C 36.7°F2.6°C 83% 3.5 mph SSW5.6 kmh SSW 6.9 mph11.1 kmh 29.55 in1000.7 mb - 0.00 in0.0 mm 0.00 in0.0 mm
03:15 AM 41.5°F5.3°C 36.7°F2.6°C 83% 4.6 mph SW7.4 kmh SW 5.8 mph9.3 kmh 29.54 in1000.3 mb - 0.00 in0.0 mm 0.00 in0.0 mm
03:20 AM 41.4°F5.2°C 36.6°F2.6°C 83% 4.6 mph W7.4 kmh W 5.8 mph9.3 kmh 29.54 in1000.3 mb - 0.00 in0.0 mm 0.00 in0.0 mm
03:25 AM 41.1°F5.1°C 36.3°F2.4°C 83% 3.5 mph SSW5.6 kmh SSW 6.9 mph11.1 kmh 29.55 in1000.7 mb - 0.00 in0.0 mm 0.00 in0.0 mm
03:30 AM 40.9°F4.9°C 36.7°F2.6°C 85% 5.8 mph WSW9.3 kmh WSW 6.9 mph11.1 kmh 29.55 in1000.7 mb - 0.00 in0.0 mm 0.00 in0.0 mm
03:35 AM 40.7°F4.8°C 36.5°F2.5°C 85% 5.8 mph SW9.3 kmh SW 8.1 mph13.0 kmh 29.55 in1000.7 mb - 0.00 in0.0 mm 0.00 in0.0 mm
03:40 AM 40.7°F4.8°C 36.5°F2.5°C 85% 4.6 mph SW7.4 kmh SW 8.1 mph13.0 kmh 29.55 in1000.7 mb - 0.00 in0.0 mm 0.00 in0.0 mm
03:45 AM 40.5°F4.7°C 36.4°F2.4°C 85% 5.8 mph SSW9.3 kmh SSW 8.1 mph13.0 kmh 29.55 in1000.7 mb - 0.00 in0.0 mm 0.00 in0.0 mm
03:50 AM 40.5°F4.7°C 36.6°F2.6°C 86% 2.3 mph SSW3.7 kmh SSW 8.1 mph13.0 kmh 29.55 in1000.7 mb - 0.00 in0.0 mm 0.00 in0.0 mm
03:55 AM 40.5°F4.7°C 36.6°F2.6°C 86% 4.6 mph SSW7.4 kmh SSW 8.1 mph13.0 kmh 29.55 in1000.7 mb - 0.00 in0.0 mm 0.00 in0.0 mm
04:00 AM 40.2°F4.6°C 36.3°F2.4°C 86% 2.3 mph SSW3.7 kmh SSW 6.9 mph11.1 kmh 29.56 in1001.0 mb - 0.00 in0.0 mm 0.00 in0.0 mm
04:10 AM 40.0°F4.4°C 36.2°F2.3°C 86% 5.8 mph SSW9.3 kmh SSW 6.9 mph11.1 kmh 29.56 in1001.0 mb - 0.00 in0.0 mm 0.00 in0.0 mm
04:15 AM 40.0°F4.4°C 36.2°F2.3°C 86% 5.8 mph SW9.3 kmh SW 6.9 mph11.1 kmh 29.56 in1001.0 mb - 0.00 in0.0 mm 0.00 in0.0 mm
04:20 AM 39.9°F4.4°C 36.1°F2.3°C 86% 3.5 mph WSW5.6 kmh WSW 5.8 mph9.3 kmh 29.56 in1001.0 mb - 0.00 in0.0 mm 0.00 in0.0 mm
04:25 AM 39.7°F4.3°C 35.9°F2.2°C 86% 3.5 mph SSW5.6 kmh SSW 5.8 mph9.3 kmh 29.56 in1001.0 mb - 0.00 in0.0 mm 0.00 in0.0 mm
04:30 AM 39.7°F4.3°C 35.9°F2.2°C 86% 3.5 mph SW5.6 kmh SW 8.1 mph13.0 kmh 29.57 in1001.4 mb - 0.00 in0.0 mm 0.00 in0.0 mm
04:35 AM 39.4°F4.1°C 36.1°F2.3°C 88% 3.5 mph W5.6 kmh W 8.1 mph13.0 kmh 29.56 in1001.0 mb - 0.00 in0.0 mm 0.00 in0.0 mm
04:40 AM 39.4°F4.1°C 36.1°F2.3°C 88% 4.6 mph SW7.4 kmh SW 5.8 mph9.3 kmh 29.56 in1001.0 mb - 0.00 in0.0 mm 0.00 in0.0 mm
04:45 AM 39.4°F4.1°C 36.1°F2.3°C 88% 3.5 mph S5.6 kmh S 5.8 mph9.3 kmh 29.57 in1001.4 mb - 0.00 in0.0 mm 0.00 in0.0 mm
04:50 AM 39.4°F4.1°C 36.1°F2.3°C 88% 3.5 mph SW5.6 kmh SW 6.9 mph11.1 kmh 29.57 in1001.4 mb - 0.00 in0.0 mm 0.00 in0.0 mm
04:55 AM 39.2°F4.0°C 35.9°F2.2°C 88% 2.3 mph SSW3.7 kmh SSW 6.9 mph11.1 kmh 29.58 in1001.7 mb - 0.00 in0.0 mm 0.00 in0.0 mm
05:00 AM 39.0°F3.9°C 35.7°F2.1°C 88% 5.8 mph SSW9.3 kmh SSW 5.8 mph9.3 kmh 29.58 in1001.7 mb - 0.00 in0.0 mm 0.00 in0.0 mm
05:10 AM 38.7°F3.7°C 35.5°F1.9°C 88% 3.5 mph SSW5.6 kmh SSW 5.8 mph9.3 kmh 29.57 in1001.4 mb - 0.00 in0.0 mm 0.00 in0.0 mm
05:15 AM 38.7°F3.7°C 35.5°F1.9°C 88% 4.6 mph SW7.4 kmh SW 4.6 mph7.4 kmh 29.58 in1001.7 mb - 0.00 in0.0 mm 0.00 in0.0 mm
05:20 AM 38.7°F3.7°C 35.5°F1.9°C 88% 2.3 mph SSW3.7 kmh SSW 4.6 mph7.4 kmh 29.58 in1001.7 mb - 0.00 in0.0 mm 0.00 in0.0 mm
05:25 AM 38.7°F3.7°C 36.0°F2.2°C 90% 2.3 mph SSE3.7 kmh SSE 4.6 mph7.4 kmh 29.58 in1001.7 mb - 0.00 in0.0 mm 0.00 in0.0 mm
05:30 AM 38.7°F3.7°C 36.0°F2.2°C 90% 3.5 mph SSW5.6 kmh SSW 4.6 mph7.4 kmh 29.58 in1001.7 mb - 0.00 in0.0 mm 0.00 in0.0 mm
05:35 AM 38.7°F3.7°C 36.0°F2.2°C 90% 5.8 mph SW9.3 kmh SW 8.1 mph13.0 kmh 29.58 in1001.7 mb - 0.00 in0.0 mm 0.00 in0.0 mm
05:40 AM 38.7°F3.7°C 36.0°F2.2°C 90% 4.6 mph SSW7.4 kmh SSW 8.1 mph13.0 kmh 29.57 in1001.4 mb - 0.00 in0.0 mm 0.00 in0.0 mm
05:45 AM 38.7°F3.7°C 36.0°F2.2°C 90% 4.6 mph SSW7.4 kmh SSW 8.1 mph13.0 kmh 29.58 in1001.7 mb - 0.00 in0.0 mm 0.00 in0.0 mm
05:50 AM 38.7°F3.7°C 36.0°F2.2°C 90% 3.5 mph SSW5.6 kmh SSW 8.1 mph13.0 kmh 29.59 in1002.0 mb - 0.00 in0.0 mm 0.00 in0.0 mm
05:55 AM 38.4°F3.6°C 35.7°F2.1°C 90% 4.6 mph SSW7.4 kmh SSW 8.1 mph13.0 kmh 29.59 in1002.0 mb - 0.00 in0.0 mm 0.00 in0.0 mm
06:00 AM 38.2°F3.4°C 35.5°F1.9°C 90% 3.5 mph SW5.6 kmh SW 8.1 mph13.0 kmh 29.59 in1002.0 mb - 0.00 in0.0 mm 0.00 in0.0 mm
06:10 AM 37.7°F3.2°C 35.0°F1.7°C 90% 5.8 mph SSW9.3 kmh SSW 6.9 mph11.1 kmh 29.59 in1002.0 mb - 0.00 in0.0 mm 0.00 in0.0 mm
06:15 AM 37.7°F3.2°C 35.0°F1.7°C 90% 3.5 mph SW5.6 kmh SW 6.9 mph11.1 kmh 29.60 in1002.4 mb - 0.00 in0.0 mm 0.00 in0.0 mm
06:20 AM 37.8°F3.2°C 35.4°F1.9°C 91% 3.5 mph SSW5.6 kmh SSW 6.9 mph11.1 kmh 29.60 in1002.4 mb - 0.00 in0.0 mm 0.00 in0.0 mm
06:25 AM 37.5°F3.1°C 35.1°F1.7°C 91% 3.5 mph SSW5.6 kmh SSW 4.6 mph7.4 kmh 29.60 in1002.4 mb - 0.00 in0.0 mm 0.00 in0.0 mm
06:30 AM 37.5°F3.1°C 35.1°F1.7°C 91% 2.3 mph SSE3.7 kmh SSE 4.6 mph7.4 kmh 29.60 in1002.4 mb - 0.00 in0.0 mm 0.00 in0.0 mm
06:35 AM 37.5°F3.1°C 35.1°F1.7°C 91% 2.3 mph SSE3.7 kmh SSE 4.6 mph7.4 kmh 29.60 in1002.4 mb - 0.00 in0.0 mm 0.00 in0.0 mm
06:40 AM 37.2°F2.9°C 34.8°F1.6°C 91% 2.3 mph SSW3.7 kmh SSW 3.5 mph5.6 kmh 29.60 in1002.4 mb - 0.00 in0.0 mm 0.00 in0.0 mm
06:45 AM 37.0°F2.8°C 34.6°F1.4°C 91% 4.6 mph S7.4 kmh S 4.6 mph7.4 kmh 29.61 in1002.7 mb - 0.00 in0.0 mm 0.00 in0.0 mm
06:50 AM 37.0°F2.8°C 34.6°F1.4°C 91% 3.5 mph SSW5.6 kmh SSW 4.6 mph7.4 kmh 29.61 in1002.7 mb - 0.00 in0.0 mm 0.00 in0.0 mm
06:55 AM 36.9°F2.7°C 34.5°F1.4°C 91% 3.5 mph S5.6 kmh S 4.6 mph7.4 kmh 29.61 in1002.7 mb - 0.00 in0.0 mm 0.00 in0.0 mm
07:00 AM 36.7°F2.6°C 34.3°F1.3°C 91% 4.6 mph S7.4 kmh S 4.6 mph7.4 kmh 29.61 in1002.7 mb - 0.00 in0.0 mm 0.00 in0.0 mm
07:10 AM 36.9°F2.7°C 34.5°F1.4°C 91% 2.3 mph WNW3.7 kmh WNW 5.8 mph9.3 kmh 29.61 in1002.7 mb - 0.00 in0.0 mm 0.00 in0.0 mm
07:15 AM 37.0°F2.8°C 34.6°F1.4°C 91% 3.5 mph W5.6 kmh W 8.1 mph13.0 kmh 29.62 in1003.0 mb - 0.00 in0.0 mm 0.00 in0.0 mm
07:20 AM 37.4°F3.0°C 35.0°F1.7°C 91% 4.6 mph SSW7.4 kmh SSW 8.1 mph13.0 kmh 29.62 in1003.0 mb - 0.00 in0.0 mm 0.00 in0.0 mm
07:25 AM 37.5°F3.1°C 35.1°F1.7°C 91% 8.1 mph W13.0 kmh W 8.1 mph13.0 kmh 29.62 in1003.0 mb - 0.00 in0.0 mm 0.00 in0.0 mm
07:30 AM 38.2°F3.4°C 35.0°F1.7°C 88% 3.5 mph W5.6 kmh W 8.1 mph13.0 kmh 29.63 in1003.4 mb - 0.00 in0.0 mm 0.00 in0.0 mm
07:35 AM 38.7°F3.7°C 35.5°F1.9°C 88% 5.8 mph SSW9.3 kmh SSW 8.1 mph13.0 kmh 29.63 in1003.4 mb - 0.00 in0.0 mm 0.00 in0.0 mm
07:40 AM 39.2°F4.0°C 35.9°F2.2°C 88% 2.3 mph W3.7 kmh W 6.9 mph11.1 kmh 29.63 in1003.4 mb - 0.00 in0.0 mm 0.00 in0.0 mm
07:45 AM 39.5°F4.2°C 36.2°F2.3°C 88% 2.3 mph SSW3.7 kmh SSW 6.9 mph11.1 kmh 29.64 in1003.7 mb - 0.00 in0.0 mm 0.00 in0.0 mm
07:50 AM 39.5°F4.2°C 35.7°F2.1°C 86% 4.6 mph SW7.4 kmh SW 5.8 mph9.3 kmh 29.63 in1003.4 mb - 0.00 in0.0 mm 0.00 in0.0 mm
07:55 AM 39.7°F4.3°C 35.9°F2.2°C 86% 4.6 mph SSW7.4 kmh SSW 6.9 mph11.1 kmh 29.64 in1003.7 mb - 0.00 in0.0 mm 0.00 in0.0 mm
08:00 AM 40.2°F4.6°C 36.3°F2.4°C 86% 4.6 mph SSE7.4 kmh SSE 6.9 mph11.1 kmh 29.65 in1004.1 mb - 0.00 in0.0 mm 0.00 in0.0 mm
08:10 AM 40.5°F4.7°C 36.6°F2.6°C 86% 3.5 mph SSW5.6 kmh SSW 9.2 mph14.8 kmh 29.66 in1004.4 mb - 0.00 in0.0 mm 0.00 in0.0 mm
08:15 AM 40.9°F4.9°C 36.7°F2.6°C 85% 3.5 mph SSW5.6 kmh SSW 8.1 mph13.0 kmh 29.65 in1004.1 mb - 0.00 in0.0 mm 0.00 in0.0 mm
08:20 AM 41.4°F5.2°C 37.2°F2.9°C 85% 3.5 mph SW5.6 kmh SW 8.1 mph13.0 kmh 29.65 in1004.1 mb - 0.00 in0.0 mm 0.00 in0.0 mm
08:25 AM 41.9°F5.5°C 37.1°F2.8°C 83% 4.6 mph SW7.4 kmh SW 8.1 mph13.0 kmh 29.66 in1004.4 mb - 0.00 in0.0 mm 0.00 in0.0 mm
08:30 AM 42.4°F5.8°C 37.6°F3.1°C 83% 3.5 mph SSW5.6 kmh SSW 5.8 mph9.3 kmh 29.65 in1004.1 mb - 0.00 in0.0 mm 0.00 in0.0 mm
08:35 AM 42.7°F5.9°C 37.9°F3.3°C 83% 3.5 mph SSW5.6 kmh SSW 5.8 mph9.3 kmh 29.66 in1004.4 mb - 0.00 in0.0 mm 0.00 in0.0 mm
08:40 AM 43.2°F6.2°C 37.8°F3.2°C 81% 3.5 mph W5.6 kmh W 4.6 mph7.4 kmh 29.66 in1004.4 mb - 0.00 in0.0 mm 0.00 in0.0 mm
08:45 AM 43.9°F6.6°C 38.4°F3.6°C 81% 2.3 mph W3.7 kmh W 4.6 mph7.4 kmh 29.66 in1004.4 mb - 0.00 in0.0 mm 0.00 in0.0 mm
08:50 AM 44.6°F7.0°C 39.1°F3.9°C 81% 3.5 mph WSW5.6 kmh WSW 6.9 mph11.1 kmh 29.66 in1004.4 mb - 0.00 in0.0 mm 0.00 in0.0 mm
08:55 AM 45.0°F7.2°C 39.2°F4.0°C 80% 3.5 mph WSW5.6 kmh WSW 6.9 mph11.1 kmh 29.67 in1004.7 mb - 0.00 in0.0 mm 0.00 in0.0 mm
09:00 AM 45.2°F7.3°C 39.1°F3.9°C 79% 4.6 mph W7.4 kmh W 6.9 mph11.1 kmh 29.67 in1004.7 mb - 0.00 in0.0 mm 0.00 in0.0 mm
09:10 AM 45.9°F7.7°C 39.8°F4.3°C 79% 4.6 mph WSW7.4 kmh WSW 5.8 mph9.3 kmh 29.67 in1004.7 mb - 0.00 in0.0 mm 0.00 in0.0 mm
09:15 AM 46.4°F8.0°C 39.9°F4.4°C 78% 2.3 mph W3.7 kmh W 5.8 mph9.3 kmh 29.67 in1004.7 mb - 0.00 in0.0 mm 0.00 in0.0 mm
09:20 AM 46.7°F8.2°C 40.2°F4.6°C 78% 4.6 mph W7.4 kmh W 5.8 mph9.3 kmh 29.67 in1004.7 mb - 0.00 in0.0 mm 0.00 in0.0 mm
09:25 AM 47.1°F8.4°C 39.9°F4.4°C 76% 3.5 mph W5.6 kmh W 5.8 mph9.3 kmh 29.68 in1005.1 mb - 0.00 in0.0 mm 0.00 in0.0 mm
09:30 AM 47.7°F8.7°C 40.2°F4.6°C 75% 1.2 mph WSW1.9 kmh WSW 5.8 mph9.3 kmh 29.68 in1005.1 mb - 0.00 in0.0 mm 0.00 in0.0 mm
09:35 AM 48.2°F9.0°C 40.6°F4.8°C 75% 4.6 mph W7.4 kmh W 5.8 mph9.3 kmh 29.68 in1005.1 mb - 0.00 in0.0 mm 0.00 in0.0 mm
09:40 AM 48.6°F9.2°C 41.0°F5.0°C 75% 3.5 mph NW5.6 kmh NW 5.8 mph9.3 kmh 29.67 in1004.7 mb - 0.00 in0.0 mm 0.00 in0.0 mm
09:45 AM 48.6°F9.2°C 41.0°F5.0°C 75% 4.6 mph W7.4 kmh W 5.8 mph9.3 kmh 29.68 in1005.1 mb - 0.00 in0.0 mm 0.00 in0.0 mm
09:50 AM 49.0°F9.4°C 41.1°F5.1°C 74% 2.3 mph SSW3.7 kmh SSW 4.6 mph7.4 kmh 29.68 in1005.1 mb - 0.00 in0.0 mm 0.00 in0.0 mm
09:55 AM 49.6°F9.8°C 41.3°F5.2°C 73% 2.3 mph SW3.7 kmh SW 4.6 mph7.4 kmh 29.68 in1005.1 mb - 0.00 in0.0 mm 0.00 in0.0 mm
10:00 AM 50.0°F10.0°C 41.7°F5.4°C 73% 4.6 mph SSW7.4 kmh SSW 4.6 mph7.4 kmh 29.68 in1005.1 mb - 0.00 in0.0 mm 0.00 in0.0 mm
10:10 AM 50.1°F10.1°C 41.8°F5.4°C 73% 3.5 mph WSW5.6 kmh WSW 5.8 mph9.3 kmh 29.69 in1005.4 mb - 0.00 in0.0 mm 0.00 in0.0 mm
10:15 AM 50.1°F10.1°C 41.1°F5.1°C 71% 4.6 mph SSW7.4 kmh SSW 6.9 mph11.1 kmh 29.69 in1005.4 mb - 0.00 in0.0 mm 0.00 in0.0 mm
10:20 AM 50.5°F10.3°C 41.5°F5.3°C 71% 4.6 mph S7.4 kmh S 6.9 mph11.1 kmh 29.69 in1005.4 mb - 0.00 in0.0 mm 0.00 in0.0 mm
10:25 AM 50.5°F10.3°C 41.4°F5.2°C 71% 3.5 mph WSW5.6 kmh WSW 6.9 mph11.1 kmh 29.69 in1005.4 mb - 0.00 in0.0 mm 0.00 in0.0 mm
10:30 AM 51.3°F10.7°C 42.2°F5.7°C 71% 4.6 mph WSW7.4 kmh WSW 8.1 mph13.0 kmh 29.69 in1005.4 mb - 0.00 in0.0 mm 0.00 in0.0 mm
10:35 AM 51.3°F10.7°C 41.8°F5.4°C 70% 4.6 mph SSW7.4 kmh SSW 8.1 mph13.0 kmh 29.69 in1005.4 mb - 0.00 in0.0 mm 0.00 in0.0 mm
10:40 AM 51.0°F10.6°C 41.6°F5.3°C 70% 3.5 mph WSW5.6 kmh WSW 8.1 mph13.0 kmh 29.69 in1005.4 mb - 0.00 in0.0 mm 0.00 in0.0 mm
10:45 AM 51.5°F10.8°C 42.0°F5.6°C 70% 5.8 mph SSE9.3 kmh SSE 9.2 mph14.8 kmh 29.69 in1005.4 mb - 0.00 in0.0 mm 0.00 in0.0 mm
10:50 AM 51.8°F11.0°C 42.3°F5.7°C 70% 5.8 mph W9.3 kmh W 9.2 mph14.8 kmh 29.69 in1005.4 mb - 0.00 in0.0 mm 0.00 in0.0 mm
10:55 AM 51.9°F11.1°C 42.4°F5.8°C 70% 5.8 mph SW9.3 kmh SW 8.1 mph13.0 kmh 29.69 in1005.4 mb - 0.00 in0.0 mm 0.00 in0.0 mm
11:00 AM 51.9°F11.1°C 42.4°F5.8°C 70% 4.6 mph W7.4 kmh W 9.2 mph14.8 kmh 29.70 in1005.8 mb - 0.00 in0.0 mm 0.00 in0.0 mm
11:10 AM 52.3°F11.3°C 42.8°F6.0°C 70% 3.5 mph WSW5.6 kmh WSW 6.9 mph11.1 kmh 29.69 in1005.4 mb - 0.00 in0.0 mm 0.00 in0.0 mm
11:15 AM 52.6°F11.4°C 43.1°F6.2°C 70% 4.6 mph SSW7.4 kmh SSW 6.9 mph11.1 kmh 29.70 in1005.8 mb - 0.00 in0.0 mm 0.00 in0.0 mm
11:20 AM 52.6°F11.4°C 43.1°F6.2°C 70% 4.6 mph SW7.4 kmh SW 8.1 mph13.0 kmh 29.70 in1005.8 mb - 0.00 in0.0 mm 0.00 in0.0 mm
11:25 AM 53.1°F11.7°C 43.6°F6.4°C 70% 4.6 mph S7.4 kmh S 8.1 mph13.0 kmh 29.70 in1005.8 mb - 0.00 in0.0 mm 0.00 in0.0 mm
11:30 AM 53.4°F11.9°C 43.5°F6.4°C 69% 5.8 mph S9.3 kmh S 8.1 mph13.0 kmh 29.70 in1005.8 mb - 0.00 in0.0 mm 0.00 in0.0 mm
11:35 AM 53.8°F12.1°C 43.9°F6.6°C 69% 4.6 mph SSW7.4 kmh SSW 9.2 mph14.8 kmh 29.70 in1005.8 mb - 0.00 in0.0 mm 0.00 in0.0 mm
11:40 AM 54.0°F12.2°C 43.7°F6.5°C 68% 5.8 mph SSW9.3 kmh SSW 9.2 mph14.8 kmh 29.70 in1005.8 mb - 0.00 in0.0 mm 0.00 in0.0 mm
11:45 AM 53.5°F11.9°C 43.6°F6.4°C 69% 4.6 mph W7.4 kmh W 8.1 mph13.0 kmh 29.70 in1005.8 mb - 0.00 in0.0 mm 0.00 in0.0 mm
11:50 AM 53.4°F11.9°C 43.5°F6.4°C 69% 8.1 mph SSW13.0 kmh SSW 9.2 mph14.8 kmh 29.71 in1006.1 mb - 0.00 in0.0 mm 0.00 in0.0 mm
11:55 AM 53.4°F11.9°C 43.5°F6.4°C 69% 8.1 mph S13.0 kmh S 11.5 mph18.5 kmh 29.70 in1005.8 mb - 0.00 in0.0 mm 0.00 in0.0 mm
12:00 PM 54.0°F12.2°C 44.1°F6.7°C 69% 5.8 mph SSW9.3 kmh SSW 11.5 mph18.5 kmh 29.70 in1005.8 mb - 0.00 in0.0 mm 0.00 in0.0 mm
12:10 PM 54.9°F12.7°C 43.7°F6.5°C 66% 4.6 mph WSW7.4 kmh WSW 11.5 mph18.5 kmh 29.70 in1005.8 mb - 0.00 in0.0 mm 0.00 in0.0 mm
12:15 PM 55.1°F12.8°C 43.5°F6.4°C 65% 6.9 mph W11.1 kmh W 9.2 mph14.8 kmh 29.70 in1005.8 mb - 0.00 in0.0 mm 0.00 in0.0 mm
12:20 PM 54.7°F12.6°C 43.2°F6.2°C 65% 6.9 mph SW11.1 kmh SW 12.7 mph20.4 kmh 29.70 in1005.8 mb - 0.00 in0.0 mm 0.00 in0.0 mm
12:25 PM 55.0°F12.8°C 43.4°F6.3°C 65% 8.1 mph W13.0 kmh W 12.7 mph20.4 kmh 29.70 in1005.8 mb - 0.00 in0.0 mm 0.00 in0.0 mm
12:30 PM 55.0°F12.8°C 43.4°F6.3°C 65% 4.6 mph SSW7.4 kmh SSW 11.5 mph18.5 kmh 29.70 in1005.8 mb - 0.00 in0.0 mm 0.00 in0.0 mm
12:35 PM 55.1°F12.8°C 43.5°F6.4°C 65% 4.6 mph SSW7.4 kmh SSW 11.5 mph18.5 kmh 29.70 in1005.8 mb - 0.00 in0.0 mm 0.00 in0.0 mm
12:40 PM 56.3°F13.5°C 43.8°F6.6°C 63% 4.6 mph WSW7.4 kmh WSW 10.4 mph16.7 kmh 29.70 in1005.8 mb - 0.00 in0.0 mm 0.00 in0.0 mm
12:45 PM 55.9°F13.3°C 43.5°F6.4°C 63% 3.5 mph SSW5.6 kmh SSW 10.4 mph16.7 kmh 29.70 in1005.8 mb - 0.00 in0.0 mm 0.00 in0.0 mm
12:50 PM 55.9°F13.3°C 43.5°F6.4°C 63% 8.1 mph SW13.0 kmh SW 10.4 mph16.7 kmh 29.70 in1005.8 mb - 0.00 in0.0 mm 0.00 in0.0 mm
12:55 PM 56.0°F13.3°C 43.6°F6.4°C 63% 8.1 mph SSW13.0 kmh SSW 10.4 mph16.7 kmh 29.70 in1005.8 mb - 0.00 in0.0 mm 0.00 in0.0 mm
01:00 PM 56.9°F13.8°C 43.6°F6.4°C 61% 5.8 mph SSW9.3 kmh SSW 10.4 mph16.7 kmh 29.70 in1005.8 mb - 0.00 in0.0 mm 0.00 in0.0 mm
01:10 PM 56.9°F13.8°C 43.6°F6.4°C 61% 5.8 mph W9.3 kmh W 8.1 mph13.0 kmh 29.70 in1005.8 mb - 0.00 in0.0 mm 0.00 in0.0 mm
01:15 PM 56.7°F13.7°C 43.4°F6.3°C 61% 4.6 mph WSW7.4 kmh WSW 9.2 mph14.8 kmh 29.70 in1005.8 mb - 0.00 in0.0 mm 0.00 in0.0 mm
01:20 PM 56.7°F13.7°C 43.0°F6.1°C 60% 4.6 mph WNW7.4 kmh WNW 9.2 mph14.8 kmh 29.69 in1005.4 mb - 0.00 in0.0 mm 0.00 in0.0 mm
01:25 PM 56.9°F13.8°C 43.1°F6.2°C 60% 6.9 mph SSW11.1 kmh SSW 9.2 mph14.8 kmh 29.70 in1005.8 mb - 0.00 in0.0 mm 0.00 in0.0 mm
01:30 PM 57.5°F14.2°C 43.3°F6.3°C 59% 5.8 mph SW9.3 kmh SW 9.2 mph14.8 kmh 29.69 in1005.4 mb - 0.00 in0.0 mm 0.00 in0.0 mm
01:35 PM 57.3°F14.1°C 43.1°F6.2°C 59% 8.1 mph SW13.0 kmh SW 9.2 mph14.8 kmh 29.69 in1005.4 mb - 0.00 in0.0 mm 0.00 in0.0 mm
01:40 PM 57.3°F14.1°C 43.1°F6.2°C 59% 4.6 mph WSW7.4 kmh WSW 9.2 mph14.8 kmh 29.69 in1005.4 mb - 0.00 in0.0 mm 0.00 in0.0 mm
01:45 PM 57.3°F14.1°C 41.7°F5.4°C 56% 4.6 mph WSW7.4 kmh WSW 9.2 mph14.8 kmh 29.70 in1005.8 mb - 0.00 in0.0 mm 0.00 in0.0 mm
01:50 PM 57.5°F14.2°C 42.8°F6.0°C 58% 9.2 mph WSW14.8 kmh WSW 9.2 mph14.8 kmh 29.69 in1005.4 mb - 0.00 in0.0 mm 0.00 in0.0 mm
01:55 PM 57.5°F14.2°C 41.9°F5.5°C 56% 4.6 mph SW7.4 kmh SW 9.2 mph14.8 kmh 29.69 in1005.4 mb - 0.00 in0.0 mm 0.00 in0.0 mm
02:00 PM 57.5°F14.2°C 41.4°F5.2°C 55% 5.8 mph SSW9.3 kmh SSW 10.4 mph16.7 kmh 29.69 in1005.4 mb - 0.00 in0.0 mm 0.00 in0.0 mm
02:10 PM 57.8°F14.3°C 41.7°F5.4°C 55% 8.1 mph W13.0 kmh W 10.4 mph16.7 kmh 29.69 in1005.4 mb - 0.00 in0.0 mm 0.00 in0.0 mm
02:15 PM 57.8°F14.3°C 41.3°F5.2°C 54% 4.6 mph S7.4 kmh S 10.4 mph16.7 kmh 29.70 in1005.8 mb - 0.00 in0.0 mm 0.00 in0.0 mm
02:20 PM 58.2°F14.6°C 41.6°F5.3°C 54% 6.9 mph W11.1 kmh W 9.2 mph14.8 kmh 29.69 in1005.4 mb - 0.00 in0.0 mm 0.00 in0.0 mm
02:25 PM 58.0°F14.4°C 41.4°F5.2°C 54% 6.9 mph W11.1 kmh W 10.4 mph16.7 kmh 29.69 in1005.4 mb - 0.00 in0.0 mm 0.00 in0.0 mm
02:30 PM 57.8°F14.3°C 40.8°F4.9°C 53% 3.5 mph SSW5.6 kmh SSW 10.4 mph16.7 kmh 29.70 in1005.8 mb - 0.00 in0.0 mm 0.00 in0.0 mm
02:35 PM 58.4°F14.7°C 40.3°F4.6°C 51% 5.8 mph W9.3 kmh W 10.4 mph16.7 kmh 29.70 in1005.8 mb - 0.00 in0.0 mm 0.00 in0.0 mm
02:40 PM 58.4°F14.7°C 40.3°F4.6°C 51% 4.6 mph W7.4 kmh W 11.5 mph18.5 kmh 29.70 in1005.8 mb - 0.00 in0.0 mm 0.00 in0.0 mm
02:45 PM 58.4°F14.7°C 41.3°F5.2°C 53% 5.8 mph W9.3 kmh W 11.5 mph18.5 kmh 29.70 in1005.8 mb - 0.00 in0.0 mm 0.00 in0.0 mm
02:50 PM 57.8°F14.3°C 39.8°F4.3°C 51% 6.9 mph WSW11.1 kmh WSW 6.9 mph11.1 kmh 29.70 in1005.8 mb - 0.00 in0.0 mm 0.00 in0.0 mm
02:55 PM 57.8°F14.3°C 39.8°F4.3°C 51% 6.9 mph SSW11.1 kmh SSW 11.5 mph18.5 kmh 29.70 in1005.8 mb - 0.00 in0.0 mm 0.00 in0.0 mm
03:00 PM 57.8°F14.3°C 40.8°F4.9°C 53% 4.6 mph W7.4 kmh W 11.5 mph18.5 kmh 29.70 in1005.8 mb - 0.00 in0.0 mm 0.00 in0.0 mm
03:10 PM 58.0°F14.4°C 40.9°F4.9°C 53% 3.5 mph WNW5.6 kmh WNW 9.2 mph14.8 kmh 29.70 in1005.8 mb - 0.00 in0.0 mm 0.00 in0.0 mm
03:15 PM 58.0°F14.4°C 40.0°F4.4°C 51% 8.1 mph WSW13.0 kmh WSW 10.4 mph16.7 kmh 29.70 in1005.8 mb - 0.00 in0.0 mm 0.00 in0.0 mm
03:20 PM 57.7°F14.3°C 39.7°F4.3°C 51% 3.5 mph SW5.6 kmh SW 10.4 mph16.7 kmh 29.70 in1005.8 mb - 0.00 in0.0 mm 0.00 in0.0 mm
03:25 PM 57.7°F14.3°C 39.7°F4.3°C 51% 5.8 mph W9.3 kmh W 10.4 mph16.7 kmh 29.70 in1005.8 mb - 0.00 in0.0 mm 0.00 in0.0 mm
03:30 PM 57.8°F14.3°C 39.8°F4.3°C 51% 4.6 mph SW7.4 kmh SW 8.1 mph13.0 kmh 29.71 in1006.1 mb - 0.00 in0.0 mm 0.00 in0.0 mm
03:35 PM 57.5°F14.2°C 39.5°F4.2°C 51% 4.6 mph SSW7.4 kmh SSW 9.2 mph14.8 kmh 29.71 in1006.1 mb - 0.00 in0.0 mm 0.00 in0.0 mm
03:40 PM 57.5°F14.2°C 40.5°F4.7°C 53% 3.5 mph SSW5.6 kmh SSW 9.2 mph14.8 kmh 29.71 in1006.1 mb - 0.00 in0.0 mm 0.00 in0.0 mm
03:45 PM 57.2°F14.0°C 40.2°F4.6°C 53% 5.8 mph SW9.3 kmh SW 9.2 mph14.8 kmh 29.71 in1006.1 mb - 0.00 in0.0 mm 0.00 in0.0 mm
03:50 PM 56.9°F13.8°C 39.9°F4.4°C 53% 9.2 mph SSW14.8 kmh SSW 10.4 mph16.7 kmh 29.71 in1006.1 mb - 0.00 in0.0 mm 0.00 in0.0 mm
03:55 PM 56.7°F13.7°C 40.2°F4.6°C 54% 4.6 mph W7.4 kmh W 10.4 mph16.7 kmh 29.71 in1006.1 mb - 0.00 in0.0 mm 0.00 in0.0 mm
04:00 PM 56.7°F13.7°C 40.2°F4.6°C 54% 5.8 mph W9.3 kmh W 9.2 mph14.8 kmh 29.71 in1006.1 mb - 0.00 in0.0 mm 0.00 in0.0 mm
04:10 PM 56.5°F13.6°C 40.0°F4.4°C 54% 5.8 mph W9.3 kmh W 8.1 mph13.0 kmh 29.71 in1006.1 mb - 0.00 in0.0 mm 0.00 in0.0 mm
04:15 PM 56.0°F13.3°C 39.6°F4.2°C 54% 3.5 mph W5.6 kmh W 9.2 mph14.8 kmh 29.71 in1006.1 mb - 0.00 in0.0 mm 0.00 in0.0 mm
04:20 PM 55.9°F13.3°C 40.0°F4.4°C 55% 4.6 mph SW7.4 kmh SW 9.2 mph14.8 kmh 29.71 in1006.1 mb - 0.00 in0.0 mm 0.00 in0.0 mm
04:25 PM 55.7°F13.2°C 39.8°F4.3°C 55% 6.9 mph W11.1 kmh W 8.1 mph13.0 kmh 29.72 in1006.4 mb - 0.00 in0.0 mm 0.00 in0.0 mm
04:30 PM 55.5°F13.1°C 39.6°F4.2°C 55% 3.5 mph SW5.6 kmh SW 8.1 mph13.0 kmh 29.72 in1006.4 mb - 0.00 in0.0 mm 0.00 in0.0 mm
04:35 PM 55.3°F12.9°C 39.4°F4.1°C 55% 3.5 mph W5.6 kmh W 8.1 mph13.0 kmh 29.72 in1006.4 mb - 0.00 in0.0 mm 0.00 in0.0 mm
04:40 PM 55.1°F12.8°C 39.2°F4.0°C 55% 9.2 mph W14.8 kmh W 9.2 mph14.8 kmh 29.72 in1006.4 mb - 0.00 in0.0 mm 0.00 in0.0 mm
04:45 PM 54.9°F12.7°C 39.0°F3.9°C 55% 4.6 mph SW7.4 kmh SW 9.2 mph14.8 kmh 29.72 in1006.4 mb - 0.00 in0.0 mm 0.00 in0.0 mm
04:50 PM 54.4°F12.4°C 39.0°F3.9°C 56% 5.8 mph SSW9.3 kmh SSW 9.2 mph14.8 kmh 29.72 in1006.4 mb - 0.00 in0.0 mm 0.00 in0.0 mm
04:55 PM 54.2°F12.3°C 38.9°F3.8°C 56% 3.5 mph W5.6 kmh W 6.9 mph11.1 kmh 29.72 in1006.4 mb - 0.00 in0.0 mm 0.00 in0.0 mm
05:00 PM 54.0°F12.2°C 39.5°F4.2°C 58% 3.5 mph W5.6 kmh W 6.9 mph11.1 kmh 29.73 in1006.8 mb - 0.00 in0.0 mm 0.00 in0.0 mm
05:10 PM 53.1°F11.7°C 39.6°F4.2°C 60% 2.3 mph WSW3.7 kmh WSW 4.6 mph7.4 kmh 29.73 in1006.8 mb - 0.00 in0.0 mm 0.00 in0.0 mm
05:15 PM 52.5°F11.4°C 39.0°F3.9°C 60% 3.5 mph WSW5.6 kmh WSW 4.6 mph7.4 kmh 29.73 in1006.8 mb - 0.00 in0.0 mm 0.00 in0.0 mm
05:20 PM 51.9°F11.1°C 38.9°F3.8°C 61% 3.5 mph SSW5.6 kmh SSW 4.6 mph7.4 kmh 29.73 in1006.8 mb - 0.00 in0.0 mm 0.00 in0.0 mm
05:25 PM 51.4°F10.8°C 38.4°F3.6°C 61% 2.3 mph W3.7 kmh W 4.6 mph7.4 kmh 29.73 in1006.8 mb - 0.00 in0.0 mm 0.00 in0.0 mm
05:30 PM 50.9°F10.5°C 38.7°F3.7°C 63% 2.3 mph SW3.7 kmh SW 3.5 mph5.6 kmh 29.74 in1007.1 mb - 0.00 in0.0 mm 0.00 in0.0 mm
05:35 PM 50.1°F10.1°C 38.0°F3.3°C 63% 2.3 mph SW3.7 kmh SW 3.5 mph5.6 kmh 29.74 in1007.1 mb - 0.00 in0.0 mm 0.00 in0.0 mm
05:40 PM 49.8°F9.9°C 37.7°F3.2°C 63% 3.5 mph SSW5.6 kmh SSW 4.6 mph7.4 kmh 29.74 in1007.1 mb - 0.00 in0.0 mm 0.00 in0.0 mm
05:45 PM 49.2°F9.6°C 37.9°F3.3°C 65% 2.3 mph SW3.7 kmh SW 4.6 mph7.4 kmh 29.74 in1007.1 mb - 0.00 in0.0 mm 0.00 in0.0 mm
05:50 PM 48.6°F9.2°C 37.4°F3.0°C 65% 2.3 mph SW3.7 kmh SW 4.6 mph7.4 kmh 29.74 in1007.1 mb - 0.00 in0.0 mm 0.00 in0.0 mm
05:55 PM 48.2°F9.0°C 37.0°F2.8°C 65% 2.3 mph W3.7 kmh W 3.5 mph5.6 kmh 29.75 in1007.5 mb - 0.00 in0.0 mm 0.00 in0.0 mm
06:00 PM 47.7°F8.7°C 36.9°F2.7°C 66% 3.5 mph W5.6 kmh W 3.5 mph5.6 kmh 29.75 in1007.5 mb - 0.00 in0.0 mm 0.00 in0.0 mm
06:10 PM 47.6°F8.7°C 36.8°F2.7°C 66% 2.3 mph SSW3.7 kmh SSW 4.6 mph7.4 kmh 29.76 in1007.8 mb - 0.00 in0.0 mm 0.00 in0.0 mm
06:15 PM 47.1°F8.4°C 36.3°F2.4°C 66% 2.3 mph SSW3.7 kmh SSW 4.6 mph7.4 kmh 29.75 in1007.5 mb - 0.00 in0.0 mm 0.00 in0.0 mm
06:20 PM 46.9°F8.3°C 36.1°F2.3°C 66% 3.5 mph SSW5.6 kmh SSW 4.6 mph7.4 kmh 29.76 in1007.8 mb - 0.00 in0.0 mm 0.00 in0.0 mm
06:25 PM 46.7°F8.2°C 35.9°F2.2°C 66% 2.3 mph SSW3.7 kmh SSW 3.5 mph5.6 kmh 29.76 in1007.8 mb - 0.00 in0.0 mm 0.00 in0.0 mm
06:30 PM 46.4°F8.0°C 35.7°F2.1°C 66% 3.5 mph SSW5.6 kmh SSW 3.5 mph5.6 kmh 29.76 in1007.8 mb - 0.00 in0.0 mm 0.00 in0.0 mm
06:35 PM 46.1°F7.8°C 35.4°F1.9°C 66% 1.2 mph SSE1.9 kmh SSE 3.5 mph5.6 kmh 29.76 in1007.8 mb - 0.00 in0.0 mm 0.00 in0.0 mm
06:40 PM 45.7°F7.6°C 35.7°F2.1°C 68% 2.3 mph S3.7 kmh S 3.5 mph5.6 kmh 29.76 in1007.8 mb - 0.00 in0.0 mm 0.00 in0.0 mm
06:45 PM 45.0°F7.2°C 35.4°F1.9°C 69% 1.2 mph SSE1.9 kmh SSE 3.5 mph5.6 kmh 29.76 in1007.8 mb - 0.00 in0.0 mm 0.00 in0.0 mm
06:50 PM 44.4°F6.9°C 35.2°F1.8°C 70% 1.2 mph S1.9 kmh S 3.5 mph5.6 kmh 29.77 in1008.1 mb - 0.00 in0.0 mm 0.00 in0.0 mm
06:55 PM 43.9°F6.6°C 35.1°F1.7°C 71% Calm Calm 1.2 mph1.9 kmh 29.77 in1008.1 mb - 0.00 in0.0 mm 0.00 in0.0 mm
07:00 PM 43.2°F6.2°C 35.1°F1.7°C 73% 2.3 mph S3.7 kmh S 2.3 mph3.7 kmh 29.77 in1008.1 mb - 0.00 in0.0 mm 0.00 in0.0 mm
07:10 PM 43.2°F6.2°C 35.5°F1.9°C 74% 3.5 mph S5.6 kmh S 3.5 mph5.6 kmh 29.77 in1008.1 mb - 0.00 in0.0 mm 0.00 in0.0 mm
07:15 PM 43.2°F6.2°C 35.1°F1.7°C 73% 2.3 mph SSW3.7 kmh SSW 3.5 mph5.6 kmh 29.77 in1008.1 mb - 0.00 in0.0 mm 0.00 in0.0 mm
07:20 PM 43.2°F6.2°C 35.1°F1.7°C 73% 1.2 mph SSW1.9 kmh SSW 3.5 mph5.6 kmh 29.77 in1008.1 mb - 0.00 in0.0 mm 0.00 in0.0 mm
07:25 PM 43.2°F6.2°C 35.1°F1.7°C 73% 3.5 mph S5.6 kmh S 3.5 mph5.6 kmh 29.78 in1008.5 mb - 0.00 in0.0 mm 0.00 in0.0 mm
07:30 PM 43.2°F6.2°C 35.1°F1.7°C 73% 3.5 mph S5.6 kmh S 3.5 mph5.6 kmh 29.78 in1008.5 mb - 0.00 in0.0 mm 0.00 in0.0 mm
07:35 PM 43.2°F6.2°C 34.4°F1.3°C 71% 1.2 mph S1.9 kmh S 3.5 mph5.6 kmh 29.78 in1008.5 mb - 0.00 in0.0 mm 0.00 in0.0 mm
07:40 PM 43.0°F6.1°C 34.2°F1.2°C 71% 1.2 mph SSW1.9 kmh SSW 3.5 mph5.6 kmh 29.77 in1008.1 mb - 0.00 in0.0 mm 0.00 in0.0 mm
07:45 PM 43.0°F6.1°C 34.2°F1.2°C 71% 1.2 mph S1.9 kmh S 2.3 mph3.7 kmh 29.77 in1008.1 mb - 0.00 in0.0 mm 0.00 in0.0 mm
07:50 PM 43.2°F6.2°C 34.4°F1.3°C 71% 3.5 mph SSW5.6 kmh SSW 3.5 mph5.6 kmh 29.78 in1008.5 mb - 0.00 in0.0 mm 0.00 in0.0 mm
07:55 PM 43.4°F6.3°C 34.3°F1.3°C 70% 3.5 mph S5.6 kmh S 3.5 mph5.6 kmh 29.78 in1008.5 mb - 0.00 in0.0 mm 0.00 in0.0 mm
08:00 PM 43.6°F6.4°C 34.5°F1.4°C 70% 2.3 mph S3.7 kmh S 3.5 mph5.6 kmh 29.77 in1008.1 mb - 0.00 in0.0 mm 0.00 in0.0 mm
08:10 PM 43.6°F6.4°C 34.5°F1.4°C 70% 3.5 mph SSW5.6 kmh SSW 3.5 mph5.6 kmh 29.78 in1008.5 mb - 0.00 in0.0 mm 0.00 in0.0 mm
08:15 PM 43.6°F6.4°C 34.5°F1.4°C 70% 3.5 mph SSW5.6 kmh SSW 3.5 mph5.6 kmh 29.78 in1008.5 mb - 0.00 in0.0 mm 0.00 in0.0 mm
08:20 PM 43.6°F6.4°C 34.5°F1.4°C 70% 3.5 mph SSW5.6 kmh SSW 3.5 mph5.6 kmh 29.79 in1008.8 mb - 0.00 in0.0 mm 0.00 in0.0 mm
08:25 PM 43.6°F6.4°C 34.5°F1.4°C 70% 2.3 mph WSW3.7 kmh WSW 4.6 mph7.4 kmh 29.79 in1008.8 mb - 0.00 in0.0 mm 0.00 in0.0 mm
08:30 PM 43.6°F6.4°C 34.5°F1.4°C 70% 2.3 mph SSW3.7 kmh SSW 4.6 mph7.4 kmh 29.78 in1008.5 mb - 0.00 in0.0 mm 0.00 in0.0 mm
08:35 PM 43.6°F6.4°C 34.5°F1.4°C 70% 3.5 mph SSW5.6 kmh SSW 3.5 mph5.6 kmh 29.79 in1008.8 mb - 0.00 in0.0 mm 0.00 in0.0 mm
08:40 PM 43.6°F6.4°C 34.5°F1.4°C 70% 2.3 mph SSE3.7 kmh SSE 3.5 mph5.6 kmh 29.79 in1008.8 mb - 0.00 in0.0 mm 0.00 in0.0 mm
08:45 PM 43.6°F6.4°C 34.5°F1.4°C 70% 2.3 mph S3.7 kmh S 3.5 mph5.6 kmh 29.79 in1008.8 mb - 0.00 in0.0 mm 0.00 in0.0 mm
08:50 PM 43.4°F6.3°C 34.3°F1.3°C 70% 1.2 mph SW1.9 kmh SW 3.5 mph5.6 kmh 29.80 in1009.1 mb - 0.00 in0.0 mm 0.00 in0.0 mm
08:55 PM 43.2°F6.2°C 34.1°F1.2°C 70% 2.3 mph SW3.7 kmh SW 3.5 mph5.6 kmh 29.80 in1009.1 mb - 0.00 in0.0 mm 0.00 in0.0 mm
09:00 PM 43.2°F6.2°C 34.1°F1.2°C 70% Calm Calm 3.5 mph5.6 kmh 29.79 in1008.8 mb - 0.00 in0.0 mm 0.00 in0.0 mm
09:10 PM 43.2°F6.2°C 34.1°F1.2°C 70% 3.5 mph SSW5.6 kmh SSW 4.6 mph7.4 kmh 29.80 in1009.1 mb - 0.00 in0.0 mm 0.00 in0.0 mm
09:15 PM 43.2°F6.2°C 34.1°F1.2°C 70% 2.3 mph SSW3.7 kmh SSW 4.6 mph7.4 kmh 29.80 in1009.1 mb - 0.00 in0.0 mm 0.00 in0.0 mm
09:20 PM 42.5°F5.8°C 33.4°F0.8°C 70% Calm Calm 3.5 mph5.6 kmh 29.80 in1009.1 mb - 0.00 in0.0 mm 0.00 in0.0 mm
09:25 PM 42.5°F5.8°C 33.8°F1.0°C 71% Calm Calm 2.3 mph3.7 kmh 29.80 in1009.1 mb - 0.00 in0.0 mm 0.00 in0.0 mm
09:30 PM 42.4°F5.8°C 33.7°F0.9°C 71% 1.2 mph E1.9 kmh E 2.3 mph3.7 kmh 29.80 in1009.1 mb - 0.00 in0.0 mm 0.00 in0.0 mm
09:35 PM 42.4°F5.8°C 33.7°F0.9°C 71% 2.3 mph SSW3.7 kmh SSW 2.3 mph3.7 kmh 29.81 in1009.5 mb - 0.00 in0.0 mm 0.00 in0.0 mm
09:40 PM 41.9°F5.5°C 33.2°F0.7°C 71% 1.2 mph SSW1.9 kmh SSW 3.5 mph5.6 kmh 29.81 in1009.5 mb - 0.00 in0.0 mm 0.00 in0.0 mm
09:45 PM 41.5°F5.3°C 33.5°F0.8°C 73% 2.3 mph SSW3.7 kmh SSW 3.5 mph5.6 kmh 29.80 in1009.1 mb - 0.00 in0.0 mm 0.00 in0.0 mm
09:50 PM 41.4°F5.2°C 33.7°F0.9°C 74% 1.2 mph SW1.9 kmh SW 2.3 mph3.7 kmh 29.81 in1009.5 mb - 0.00 in0.0 mm 0.00 in0.0 mm
09:55 PM 40.7°F4.8°C 33.4°F0.8°C 75% Calm Calm 2.3 mph3.7 kmh 29.81 in1009.5 mb - 0.00 in0.0 mm 0.00 in0.0 mm
10:00 PM 40.5°F4.7°C 33.2°F0.7°C 75% Calm Calm 1.2 mph1.9 kmh 29.81 in1009.5 mb - 0.00 in0.0 mm 0.00 in0.0 mm
10:10 PM 39.9°F4.4°C 32.6°F0.3°C 75% Calm Calm 2.3 mph3.7 kmh 29.81 in1009.5 mb - 0.00 in0.0 mm 0.00 in0.0 mm
10:15 PM 39.5°F4.2°C 32.6°F0.3°C 76% Calm Calm 2.3 mph3.7 kmh 29.81 in1009.5 mb - 0.00 in0.0 mm 0.00 in0.0 mm
10:20 PM 39.2°F4.0°C 32.9°F0.5°C 78% Calm Calm -- 29.82 in1009.8 mb - 0.00 in0.0 mm 0.00 in0.0 mm
10:25 PM 39.0°F3.9°C 32.7°F0.4°C 78% Calm Calm 1.2 mph1.9 kmh 29.82 in1009.8 mb - 0.00 in0.0 mm 0.00 in0.0 mm
10:30 PM 38.7°F3.7°C 32.4°F0.2°C 78% 1.2 mph S1.9 kmh S 2.3 mph3.7 kmh 29.82 in1009.8 mb - 0.00 in0.0 mm 0.00 in0.0 mm
10:35 PM 38.7°F3.7°C 32.4°F0.2°C 78% 2.3 mph SSW3.7 kmh SSW 2.3 mph3.7 kmh 29.82 in1009.8 mb - 0.00 in0.0 mm 0.00 in0.0 mm
10:40 PM 38.7°F3.7°C 32.7°F0.4°C 79% 2.3 mph SSE3.7 kmh SSE 2.3 mph3.7 kmh 29.82 in1009.8 mb - 0.00 in0.0 mm 0.00 in0.0 mm
10:45 PM 38.7°F3.7°C 32.7°F0.4°C 79% 1.2 mph ESE1.9 kmh ESE 2.3 mph3.7 kmh 29.83 in1010.2 mb - 0.00 in0.0 mm 0.00 in0.0 mm
10:50 PM 38.7°F3.7°C 32.7°F0.4°C 79% Calm Calm 2.3 mph3.7 kmh 29.83 in1010.2 mb - 0.00 in0.0 mm 0.00 in0.0 mm
10:55 PM 38.4°F3.6°C 32.5°F0.3°C 79% 1.2 mph SSE1.9 kmh SSE 1.2 mph1.9 kmh 29.84 in1010.5 mb - 0.00 in0.0 mm 0.00 in0.0 mm
11:00 PM 38.7°F3.7°C 32.7°F0.4°C 79% 1.2 mph S1.9 kmh S 1.2 mph1.9 kmh 29.82 in1009.8 mb - 0.00 in0.0 mm 0.00 in0.0 mm
11:10 PM 38.2°F3.4°C 32.6°F0.3°C 80% 1.2 mph SSE1.9 kmh SSE 1.2 mph1.9 kmh 29.83 in1010.2 mb - 0.00 in0.0 mm 0.00 in0.0 mm
11:15 PM 38.2°F3.4°C 32.6°F0.3°C 80% 1.2 mph S1.9 kmh S 1.2 mph1.9 kmh 29.84 in1010.5 mb - 0.00 in0.0 mm 0.00 in0.0 mm
11:20 PM 38.0°F3.3°C 32.4°F0.2°C 80% Calm Calm 1.2 mph1.9 kmh 29.84 in1010.5 mb - 0.00 in0.0 mm 0.00 in0.0 mm
11:25 PM 37.8°F3.2°C 32.5°F0.3°C 81% Calm Calm 1.2 mph1.9 kmh 29.83 in1010.2 mb - 0.00 in0.0 mm 0.00 in0.0 mm
11:30 PM 37.8°F3.2°C 32.5°F0.3°C 81% Calm Calm -- 29.83 in1010.2 mb - 0.00 in0.0 mm 0.00 in0.0 mm
11:35 PM 37.8°F3.2°C 32.5°F0.3°C 81% 1.2 mph SE1.9 kmh SE 1.2 mph1.9 kmh 29.83 in1010.2 mb - 0.00 in0.0 mm 0.00 in0.0 mm
11:40 PM 37.7°F3.2°C 32.4°F0.2°C 81% 1.2 mph ESE1.9 kmh ESE 2.3 mph3.7 kmh 29.83 in1010.2 mb - 0.00 in0.0 mm 0.00 in0.0 mm
11:45 PM 37.8°F3.2°C 32.5°F0.3°C 81% 1.2 mph ESE1.9 kmh ESE 2.3 mph3.7 kmh 29.83 in1010.2 mb - 0.00 in0.0 mm 0.00 in0.0 mm
11:50 PM 37.8°F3.2°C 32.5°F0.3°C 81% 1.2 mph ESE1.9 kmh ESE 2.3 mph3.7 kmh 29.84 in1010.5 mb - 0.00 in0.0 mm 0.00 in0.0 mm
11:55 PM 37.8°F3.2°C 32.5°F0.3°C 81% 1.2 mph ESE1.9 kmh ESE 2.3 mph3.7 kmh 29.83 in1010.2 mb - 0.00 in0.0 mm 0.00 in0.0 mm